AIB155 KIAH-KSTL
Flight info
| Callsign | AIB155 |
|---|---|
| Flight time | N/A |
| Altitude | 33000 |
| Route | INDIE8 TPAKK LIT ARG BOOSH3 |
| Aircraft | A359/H-V/N |
Departure
| Time | 2025-09-07 04:42 |
|---|---|
| Airport | George Bush Intercontinental Airport (KIAH) |
Arrival
| Time | N/A |
|---|---|
| Airport | St. Louis Lambert International Airport (KSTL) |
| Time | Latitude | Longitude | Altitude | Speed | Heading |
|---|---|---|---|---|---|
| 2025-09-07 04:20 | 29.98538 | -95.35207 | 102 ft | 0 kts | 58° |
| 2025-09-07 04:32 | 29.98534 | -95.35214 | 102 ft | 2 kts | 58° |
| 2025-09-07 04:32 | 29.98521 | -95.35239 | 102 ft | 2 kts | 45° |
| 2025-09-07 04:33 | 29.98495 | -95.35255 | 102 ft | 2 kts | 11° |
| 2025-09-07 04:33 | 29.98465 | -95.35254 | 102 ft | 2 kts | 337° |
| 2025-09-07 04:34 | 29.98457 | -95.35249 | 102 ft | 0 kts | 330° |
| 2025-09-07 04:36 | 29.98473 | -95.35259 | 102 ft | 7 kts | 331° |
| 2025-09-07 04:36 | 29.98678 | -95.35381 | 102 ft | 24 kts | 328° |
| 2025-09-07 04:37 | 29.99023 | -95.35583 | 102 ft | 26 kts | 331° |
| 2025-09-07 04:37 | 29.99095 | -95.35862 | 105 ft | 17 kts | 262° |
| 2025-09-07 04:37 | 29.99033 | -95.36014 | 105 ft | 18 kts | 208° |
| 2025-09-07 04:38 | 29.98824 | -95.36034 | 102 ft | 0 kts | 232° |
| 2025-09-07 04:39 | 29.98713 | -95.36089 | 103 ft | 0 kts | 164° |
| 2025-09-07 04:40 | 29.98689 | -95.36077 | 102 ft | 19 kts | 157° |
| 2025-09-07 04:40 | 29.98392 | -95.35899 | 102 ft | 75 kts | 154° |
| 2025-09-07 04:40 | 29.96866 | -95.34960 | 128 ft | 166 kts | 152° |
| 2025-09-07 04:41 | 29.94623 | -95.35265 | 991 ft | 198 kts | 229° |
| 2025-09-07 04:41 | 29.94449 | -95.38407 | 1736 ft | 217 kts | 311° |
| 2025-09-07 04:42 | 29.97340 | -95.39122 | 2608 ft | 235 kts | 21° |
| 2025-09-07 04:42 | 30.00277 | -95.37686 | 3358 ft | 216 kts | 24° |
| 2025-09-07 04:43 | 30.04296 | -95.34985 | 4498 ft | 259 kts | 40° |
| 2025-09-07 04:44 | 30.07497 | -95.32365 | 6094 ft | 324 kts | 36° |
| 2025-09-07 04:44 | 30.09030 | -95.31030 | 6175 ft | 343 kts | 38° |
| 2025-09-07 04:44 | 30.12309 | -95.28275 | 6049 ft | 318 kts | 34° |
| 2025-09-07 04:45 | 30.15464 | -95.26792 | 6023 ft | 293 kts | 21° |
| 2025-09-07 04:45 | 30.19163 | -95.25169 | 5980 ft | 267 kts | 21° |
| 2025-09-07 04:46 | 30.22522 | -95.23678 | 6000 ft | 257 kts | 21° |
| 2025-09-07 04:46 | 30.26103 | -95.22084 | 5985 ft | 273 kts | 21° |
| 2025-09-07 04:47 | 30.31483 | -95.19688 | 5994 ft | 274 kts | 21° |
| 2025-09-07 04:47 | 30.33289 | -95.18883 | 6006 ft | 273 kts | 21° |
| 2025-09-07 04:48 | 30.36865 | -95.17287 | 6033 ft | 269 kts | 21° |
| 2025-09-07 04:48 | 30.40414 | -95.15704 | 6956 ft | 278 kts | 21° |
| 2025-09-07 04:49 | 30.44083 | -95.14065 | 7807 ft | 280 kts | 21° |
| 2025-09-07 04:49 | 30.47778 | -95.12415 | 8669 ft | 283 kts | 21° |
| 2025-09-07 04:50 | 30.51485 | -95.10757 | 9522 ft | 287 kts | 21° |
| 2025-09-07 04:51 | 30.57229 | -95.08185 | 10836 ft | 302 kts | 21° |
| 2025-09-07 04:51 | 30.59230 | -95.07257 | 11276 ft | 310 kts | 26° |
| 2025-09-07 04:51 | 30.63129 | -95.04770 | 12169 ft | 325 kts | 29° |
| 2025-09-07 04:52 | 30.67211 | -95.02144 | 13052 ft | 339 kts | 29° |
| 2025-09-07 04:52 | 30.71431 | -94.99429 | 13923 ft | 349 kts | 29° |
| 2025-09-07 04:53 | 30.75650 | -94.96712 | 14753 ft | 346 kts | 29° |
| 2025-09-07 04:54 | 30.82079 | -94.92566 | 16047 ft | 352 kts | 29° |
| 2025-09-07 04:54 | 30.86417 | -94.89764 | 16905 ft | 357 kts | 29° |
| 2025-09-07 04:54 | 30.88589 | -94.88361 | 17330 ft | 359 kts | 29° |
| 2025-09-07 04:55 | 30.95181 | -94.84097 | 18605 ft | 365 kts | 29° |
| 2025-09-07 04:56 | 30.99676 | -94.81185 | 19458 ft | 370 kts | 29° |
| 2025-09-07 04:56 | 31.04216 | -94.78241 | 20314 ft | 375 kts | 29° |
| 2025-09-07 04:57 | 31.08794 | -94.75269 | 21165 ft | 379 kts | 29° |
| 2025-09-07 04:57 | 31.13431 | -94.72255 | 22015 ft | 381 kts | 29° |
| 2025-09-07 04:58 | 31.18101 | -94.69217 | 22867 ft | 384 kts | 29° |
| 2025-09-07 04:58 | 31.20422 | -94.67705 | 23287 ft | 385 kts | 29° |
| 2025-09-07 04:58 | 31.25105 | -94.64653 | 24132 ft | 387 kts | 29° |
| 2025-09-07 05:01 | 31.46108 | -94.50496 | 27913 ft | 384 kts | 31° |
| 2025-09-07 05:02 | 31.61744 | -94.39269 | 30793 ft | 367 kts | 31° |
| 2025-09-07 05:05 | 31.80765 | -94.25556 | 33022 ft | 383 kts | 32° |
| 2025-09-07 05:06 | 31.98603 | -94.12696 | 33005 ft | 474 kts | 31° |
| 2025-09-07 05:09 | 32.24305 | -93.94135 | 32975 ft | 470 kts | 31° |
| 2025-09-07 05:10 | 32.43769 | -93.80154 | 33023 ft | 467 kts | 31° |
| 2025-09-07 05:12 | 32.66037 | -93.64187 | 32997 ft | 468 kts | 31° |
| 2025-09-07 05:14 | 32.88390 | -93.48188 | 32977 ft | 469 kts | 31° |
| 2025-09-07 05:16 | 33.10695 | -93.32252 | 32983 ft | 469 kts | 31° |
| 2025-09-07 05:18 | 33.33081 | -93.16287 | 33009 ft | 469 kts | 31° |
| 2025-09-07 05:20 | 33.55486 | -93.00339 | 33027 ft | 468 kts | 31° |
| 2025-09-07 05:22 | 33.77874 | -92.84432 | 33009 ft | 468 kts | 30° |
| 2025-09-07 05:24 | 34.00322 | -92.68513 | 32983 ft | 468 kts | 30° |
| 2025-09-07 05:26 | 34.22781 | -92.52615 | 32978 ft | 469 kts | 30° |
| 2025-09-07 05:28 | 34.40877 | -92.31159 | 33071 ft | 467 kts | 37° |
| 2025-09-07 05:30 | 34.62674 | -92.13819 | 33013 ft | 467 kts | 33° |
| 2025-09-07 05:33 | 34.87302 | -91.94515 | 33027 ft | 468 kts | 33° |
| 2025-09-07 05:34 | 35.06412 | -91.79439 | 32976 ft | 469 kts | 33° |
| 2025-09-07 05:37 | 35.31002 | -91.59914 | 32987 ft | 468 kts | 33° |
| 2025-09-07 05:38 | 35.50029 | -91.44707 | 32281 ft | 463 kts | 33° |
| 2025-09-07 05:41 | 35.73979 | -91.25441 | 30716 ft | 452 kts | 33° |
| 2025-09-07 05:42 | 35.92168 | -91.10715 | 29496 ft | 443 kts | 33° |
| 2025-09-07 05:45 | 36.14458 | -90.91184 | 27911 ft | 433 kts | 44° |
| 2025-09-07 05:46 | 36.29177 | -90.73319 | 26642 ft | 399 kts | 44° |
| 2025-09-07 05:48 | 36.43453 | -90.55884 | 25075 ft | 327 kts | 44° |
| 2025-09-07 05:49 | 36.46569 | -90.52065 | 24995 ft | 301 kts | 44° |
| 2025-09-07 05:49 | 36.49318 | -90.48375 | 24688 ft | 288 kts | 58° |
| 2025-09-07 05:50 | 36.49809 | -90.43093 | 23668 ft | 363 kts | 110° |
| 2025-09-07 05:50 | 36.46239 | -90.38585 | 21985 ft | 391 kts | 159° |
| 2025-09-07 05:51 | 36.38346 | -90.40928 | 17549 ft | 448 kts | 225° |
| 2025-09-07 05:52 | 36.35285 | -90.47868 | 14331 ft | 468 kts | 247° |
| 2025-09-07 05:52 | 36.33088 | -90.55323 | 12437 ft | 457 kts | 252° |
| 2025-09-07 05:52 | 36.32186 | -90.59056 | 11517 ft | 451 kts | 254° |
| 2025-09-07 05:53 | 36.30774 | -90.66509 | 9695 ft | 440 kts | 259° |
| 2025-09-07 05:53 | 36.29886 | -90.73873 | 7905 ft | 430 kts | 264° |
| 2025-09-07 05:54 | 36.29508 | -90.81125 | 6152 ft | 419 kts | 268° |
| 2025-09-07 05:55 | 36.29877 | -90.91688 | 3579 ft | 405 kts | 276° |
| 2025-09-07 05:55 | 36.30243 | -90.95106 | 2741 ft | 401 kts | 278° |
| 2025-09-07 05:55 | 36.31330 | -91.01771 | 1071 ft | 392 kts | 284° |